Time;durP1;ratioP1;P1;durP2;ratioP2;P2;SDS_P1;SDS_P2;PMS_P1;PMS_P2;Temp;Humidity;BMP_temperature;BMP_pressure;BME280_temperature;BME280_humidity;BME280_pressure;Samples;Min_cycle;Max_cycle;Signal;HPM_P1;HPM_P2
2023/04/18 00:01:20;;;;;;;27.02;17.20;;;;;;;10.78;71.83;102879.03;4945010;28;20401;-40
2023/04/18 00:03:45;;;;;;;26.50;16.02;;;;;;;10.77;71.77;102882.47;4948830;28;20183;-42
2023/04/18 00:06:12;;;;;;;32.85;17.95;;;;;;;10.80;72.07;102886.09;4945895;28;20031;-41
2023/04/18 00:08:38;;;;;;;27.80;16.48;;;;;;;10.96;71.47;102883.34;4948426;28;20046;-41
2023/04/18 00:11:03;;;;;;;28.90;17.25;;;;;;;10.84;71.54;102885.44;4942428;28;20031;-41
2023/04/18 00:13:28;;;;;;;27.33;16.40;;;;;;;10.89;71.42;102883.91;4945925;28;20043;-43
2023/04/18 00:15:54;;;;;;;26.02;16.42;;;;;;;10.77;72.14;102882.47;4945465;28;20038;-42
2023/04/18 00:18:20;;;;;;;31.73;16.65;;;;;;;10.66;72.27;102882.00;4941974;28;20043;-40
2023/04/18 00:20:45;;;;;;;31.48;17.02;;;;;;;10.65;72.86;102889.75;4945277;28;20558;-41
2023/04/18 00:23:12;;;;;;;29.27;16.38;;;;;;;10.82;72.35;102884.44;4941694;28;20055;-41
2023/04/18 00:25:38;;;;;;;29.75;16.38;;;;;;;10.90;71.09;102885.69;4945248;28;20329;-40
2023/04/18 00:28:03;;;;;;;28.95;16.33;;;;;;;11.10;70.08;102878.72;4944770;28;20035;-40
2023/04/18 00:30:29;;;;;;;29.63;16.55;;;;;;;11.05;70.48;102877.63;4951333;28;20023;-43
2023/04/18 00:32:54;;;;;;;26.83;16.15;;;;;;;10.72;71.35;102877.06;4951196;28;20062;-40
2023/04/18 00:35:19;;;;;;;28.00;16.90;;;;;;;10.64;71.34;102880.13;4942314;28;20041;-41
2023/04/18 00:37:45;;;;;;;30.30;16.75;;;;;;;10.88;71.17;102874.28;4945431;28;20109;-41
2023/04/18 00:40:10;;;;;;;30.48;16.92;;;;;;;10.75;70.83;102873.66;4941549;28;20028;-41
2023/04/18 00:42:35;;;;;;;25.73;15.65;;;;;;;10.82;71.04;102870.50;4944758;28;20035;-42
2023/04/18 00:45:01;;;;;;;27.42;16.65;;;;;;;10.69;70.44;102876.00;4940933;28;20031;-41
2023/04/18 00:47:26;;;;;;;29.38;17.38;;;;;;;10.44;71.74;102867.06;4947365;28;20027;-44
2023/04/18 00:49:52;;;;;;;26.80;16.63;;;;;;;10.65;70.92;102868.88;4947274;28;20062;-40
2023/04/18 00:52:18;;;;;;;28.65;16.58;;;;;;;10.65;70.49;102874.09;4946265;28;20408;-41
2023/04/18 00:54:43;;;;;;;25.30;15.80;;;;;;;10.83;70.27;102873.19;4947036;28;20098;-41
2023/04/18 00:57:10;;;;;;;28.40;16.33;;;;;;;10.69;70.16;102868.19;4942285;28;20405;-41
2023/04/18 00:59:35;;;;;;;26.95;16.00;;;;;;;10.68;70.26;102869.00;4945341;28;20129;-41
2023/04/18 01:02:02;;;;;;;25.52;15.75;;;;;;;10.65;70.03;102866.28;4940881;28;20515;-42
2023/04/18 01:04:28;;;;;;;25.58;16.02;;;;;;;10.45;70.49;102868.88;4947633;28;20039;-40
2023/04/18 01:06:53;;;;;;;24.40;15.68;;;;;;;10.67;70.03;102862.91;4945292;28;20517;-41
2023/04/18 01:09:19;;;;;;;23.63;15.02;;;;;;;10.61;69.74;102865.25;4941913;28;20032;-42
2023/04/18 01:11:44;;;;;;;26.60;15.32;;;;;;;10.66;68.97;102863.75;4945023;28;20059;-43
2023/04/18 01:14:10;;;;;;;22.63;14.32;;;;;;;10.62;68.33;102861.78;4941102;28;20050;-43
2023/04/18 01:16:38;;;;;;;25.10;14.70;;;;;;;10.59;68.35;102866.91;4945437;28;20098;-50
2023/04/18 01:19:04;;;;;;;21.85;14.43;;;;;;;10.40;68.05;102859.94;4940545;28;20047;-44
2023/04/18 01:21:32;;;;;;;24.10;13.98;;;;;;;10.38;66.84;102852.88;4944126;28;20032;-44
2023/04/18 01:24:13;;;;;;;22.27;13.50;;;;;;;10.55;66.38;102851.94;4941466;28;20041;-45
2023/04/18 01:26:39;;;;;;;23.75;13.63;;;;;;;10.73;65.08;102850.16;4944330;28;20035;-44
2023/04/18 01:29:04;;;;;;;23.30;13.95;;;;;;;10.48;64.72;102852.47;4941511;28;20098;-43
2023/04/18 01:31:33;;;;;;;20.48;13.07;;;;;;;10.48;64.08;102856.00;4949025;29;20509;-42
2023/04/18 01:33:58;;;;;;;21.98;12.82;;;;;;;10.22;63.60;102851.28;4944814;28;20562;-43
2023/04/18 01:36:23;;;;;;;24.77;13.65;;;;;;;10.33;63.26;102852.66;4945791;28;20059;-43
2023/04/18 01:38:49;;;;;;;21.92;13.30;;;;;;;10.12;63.69;102852.53;4943885;28;20070;-43
2023/04/18 01:41:14;;;;;;;19.95;12.63;;;;;;;10.04;63.34;102855.59;4941362;28;20058;-44
2023/04/18 01:43:39;;;;;;;20.63;12.73;;;;;;;10.59;62.13;102856.47;4945151;28;20039;-42
2023/04/18 01:46:05;;;;;;;20.67;12.93;;;;;;;10.35;61.68;102853.63;4943304;28;20049;-41
2023/04/18 01:48:31;;;;;;;23.30;12.98;;;;;;;10.29;61.43;102862.88;4946416;28;20498;-42
2023/04/18 01:50:57;;;;;;;19.63;12.23;;;;;;;10.31;60.54;102858.63;4946200;28;20516;-47
2023/04/18 01:53:22;;;;;;;21.67;12.98;;;;;;;10.14;60.32;102861.31;4940532;28;20063;-42
2023/04/18 01:55:49;;;;;;;21.88;12.90;;;;;;;10.33;60.11;102863.09;4949813;28;20043;-44
2023/04/18 01:58:15;;;;;;;19.52;12.38;;;;;;;10.03;60.00;102851.22;4949722;28;20031;-42
2023/04/18 02:00:40;;;;;;;18.65;12.05;;;;;;;10.02;59.74;102850.31;4952785;28;20035;-44
2023/04/18 02:03:05;;;;;;;20.50;12.38;;;;;;;9.96;59.84;102850.03;4947684;28;20375;-44
2023/04/18 02:05:30;;;;;;;22.15;12.02;;;;;;;10.02;59.26;102854.63;4953821;28;20041;-42
2023/04/18 02:07:56;;;;;;;21.60;11.75;;;;;;;10.00;58.43;102849.34;4955409;28;20405;-42
2023/04/18 02:10:22;;;;;;;18.10;11.57;;;;;;;10.00;58.87;102851.94;4951437;28;20062;-41
2023/04/18 02:12:47;;;;;;;22.45;12.13;;;;;;;9.85;58.75;102847.75;4954557;28;20035;-41
2023/04/18 02:15:12;;;;;;;20.85;12.05;;;;;;;9.91;57.90;102838.50;4947156;28;20039;-43
2023/04/18 02:17:37;;;;;;;19.60;11.43;;;;;;;10.00;58.26;102844.13;4949696;28;20425;-44
2023/04/18 02:20:03;;;;;;;19.95;11.80;;;;;;;9.92;58.21;102840.28;4945863;28;20117;-41
2023/04/18 02:22:28;;;;;;;17.38;11.38;;;;;;;9.90;57.62;102841.91;4951351;28;20042;-43
2023/04/18 02:24:54;;;;;;;20.50;11.35;;;;;;;9.80;58.19;102842.31;4951008;28;20466;-41
2023/04/18 02:27:19;;;;;;;18.60;11.40;;;;;;;9.95;57.56;102845.63;4946991;28;20088;-41
2023/04/18 02:29:45;;;;;;;18.77;11.30;;;;;;;9.69;57.65;102836.59;4950253;28;20039;-43
2023/04/18 02:32:10;;;;;;;17.95;11.13;;;;;;;9.83;57.33;102834.63;4947444;28;20287;-42
2023/04/18 02:34:36;;;;;;;19.02;11.23;;;;;;;9.65;57.56;102825.94;4951430;28;20121;-44
2023/04/18 02:37:01;;;;;;;17.92;11.23;;;;;;;9.62;57.44;102834.50;4947129;28;20037;-45
2023/04/18 02:39:26;;;;;;;17.92;11.45;;;;;;;9.74;57.18;102837.72;4953371;28;20035;-41
2023/04/18 02:41:52;;;;;;;19.35;11.13;;;;;;;9.56;57.11;102833.31;4954651;28;20522;-43
2023/04/18 02:44:17;;;;;;;18.45;11.02;;;;;;;9.68;57.45;102837.41;4951648;28;21419;-42
2023/04/18 02:46:42;;;;;;;18.92;11.38;;;;;;;9.50;57.21;102841.72;4954718;28;20031;-41
2023/04/18 02:49:08;;;;;;;19.58;11.38;;;;;;;9.40;57.64;102844.69;4950833;28;20031;-46
2023/04/18 02:51:33;;;;;;;17.80;11.43;;;;;;;9.38;57.10;102842.84;4954766;28;20113;-44
2023/04/18 02:53:58;;;;;;;18.25;11.02;;;;;;;9.36;56.98;102843.66;4949268;28;20456;-42
2023/04/18 02:56:23;;;;;;;18.88;11.30;;;;;;;9.47;57.14;102838.06;4950930;28;20032;-45
2023/04/18 02:58:49;;;;;;;18.67;11.73;;;;;;;9.45;56.49;102838.03;4949809;28;20046;-42
2023/04/18 03:01:16;;;;;;;19.58;10.88;;;;;;;9.37;56.95;102841.94;4947950;28;20042;-46
2023/04/18 03:03:42;;;;;;;20.58;11.32;;;;;;;9.40;56.49;102849.00;4951150;28;20028;-40
2023/04/18 03:06:07;;;;;;;20.10;11.48;;;;;;;9.43;56.06;102843.94;4952060;28;20401;-41
2023/04/18 03:08:32;;;;;;;21.33;11.98;;;;;;;9.44;56.24;102841.44;4952171;28;20042;-43
2023/04/18 03:10:57;;;;;;;20.25;12.15;;;;;;;9.34;56.42;102840.06;4946832;28;20091;-41
2023/04/18 03:13:23;;;;;;;21.23;11.65;;;;;;;9.12;56.60;102841.53;4950976;28;20066;-42
2023/04/18 03:15:49;;;;;;;21.55;11.70;;;;;;;9.23;56.52;102842.94;4952129;28;20031;-45
2023/04/18 03:18:15;;;;;;;20.08;11.57;;;;;;;9.35;55.92;102843.56;4944483;28;20039;-42
2023/04/18 03:20:40;;;;;;;22.65;11.98;;;;;;;9.41;56.25;102849.06;4948516;28;20437;-42
2023/04/18 03:23:05;;;;;;;20.05;11.57;;;;;;;9.31;55.95;102850.34;4953473;28;20102;-43
2023/04/18 03:25:31;;;;;;;20.40;11.63;;;;;;;9.36;56.15;102847.97;4968906;28;20043;-42
2023/04/18 03:27:56;;;;;;;20.42;11.57;;;;;;;9.27;56.37;102844.91;4968256;28;20042;-43
2023/04/18 03:30:22;;;;;;;20.67;12.55;;;;;;;9.16;56.03;102853.88;4965433;28;20049;-42
2023/04/18 03:32:47;;;;;;;20.83;11.80;;;;;;;9.09;56.04;102847.47;4969009;28;20426;-44
2023/04/18 03:35:13;;;;;;;20.90;12.65;;;;;;;9.34;55.55;102852.19;4965025;28;20117;-44
2023/04/18 03:37:39;;;;;;;19.23;11.80;;;;;;;9.65;55.10;102852.88;4969379;28;20038;-42
2023/04/18 03:40:05;;;;;;;20.50;12.40;;;;;;;9.38;55.25;102848.03;4965770;28;20035;-45
2023/04/18 03:42:30;;;;;;;22.35;12.90;;;;;;;9.43;55.40;102842.25;4968749;28;20050;-42
2023/04/18 03:44:55;;;;;;;25.17;13.20;;;;;;;9.23;55.29;102849.06;4968746;28;20039;-44
2023/04/18 03:47:21;;;;;;;20.75;12.75;;;;;;;9.74;54.06;102840.31;4964550;28;20374;-43
2023/04/18 03:49:46;;;;;;;22.73;13.05;;;;;;;9.86;54.18;102842.59;4966795;28;20035;-41
2023/04/18 03:52:12;;;;;;;26.15;13.05;;;;;;;9.52;54.58;102834.88;4966850;28;20039;-46
2023/04/18 03:54:37;;;;;;;22.88;12.85;;;;;;;9.66;54.16;102839.03;4975708;28;20050;-47
2023/04/18 03:57:02;;;;;;;22.08;13.13;;;;;;;9.85;53.84;102838.22;4974073;28;20090;-41
2023/04/18 03:59:28;;;;;;;25.00;13.27;;;;;;;9.85;53.57;102839.91;4972564;28;20023;-42
2023/04/18 04:01:53;;;;;;;21.05;12.52;;;;;;;9.63;53.84;102843.22;4971497;28;20046;-43
2023/04/18 04:04:19;;;;;;;20.38;12.30;;;;;;;9.90;53.46;102846.25;4968372;28;20046;-42
2023/04/18 04:06:44;;;;;;;24.13;13.38;;;;;;;9.72;53.11;102841.94;4968106;28;20041;-41
2023/04/18 04:09:09;;;;;;;22.67;13.15;;;;;;;9.74;53.09;102845.53;4963451;28;20030;-43
2023/04/18 04:11:35;;;;;;;22.80;12.88;;;;;;;10.19;52.75;102848.53;4966501;28;20037;-42
2023/04/18 04:14:01;;;;;;;23.38;12.60;;;;;;;10.13;53.02;102848.19;4961801;28;20035;-40
2023/04/18 04:16:26;;;;;;;21.35;12.98;;;;;;;10.02;52.16;102845.09;4965337;28;20046;-42
2023/04/18 04:18:52;;;;;;;23.67;12.88;;;;;;;10.34;52.17;102850.94;4963703;28;20485;-41
2023/04/18 04:21:17;;;;;;;25.23;13.63;;;;;;;10.06;52.27;102846.16;4960814;28;20053;-42
2023/04/18 04:23:42;;;;;;;23.92;13.18;;;;;;;9.96;52.13;102852.63;4964515;28;20042;-44
2023/04/18 04:26:08;;;;;;;22.73;13.38;;;;;;;10.37;51.92;102851.09;4961417;28;20038;-41
2023/04/18 04:28:34;;;;;;;29.23;13.73;;;;;;;10.46;51.38;102855.00;4964355;28;20041;-40
2023/04/18 04:31:00;;;;;;;26.27;13.73;;;;;;;10.31;51.30;102856.91;4961258;28;20066;-43
2023/04/18 04:33:28;;;;;;;24.33;13.95;;;;;;;10.37;51.27;102840.69;4964319;28;20058;-43
2023/04/18 04:35:55;;;;;;;24.17;13.23;;;;;;;10.14;52.43;102852.59;4964051;28;20193;-43
2023/04/18 04:38:21;;;;;;;21.98;13.35;;;;;;;10.44;51.69;102854.03;4961005;28;20038;-41
2023/04/18 04:40:48;;;;;;;22.38;13.27;;;;;;;10.37;51.72;102851.97;4964308;28;20070;-42
2023/04/18 04:43:14;;;;;;;24.33;13.60;;;;;;;10.72;51.52;102850.06;4960877;28;20031;-45
2023/04/18 04:45:40;;;;;;;24.90;13.50;;;;;;;10.47;51.34;102851.59;4963829;28;20065;-44
2023/04/18 04:48:06;;;;;;;25.20;13.38;;;;;;;10.55;52.42;102862.38;4960646;28;20058;-43
2023/04/18 04:50:34;;;;;;;22.65;13.02;;;;;;;10.53;52.44;102869.22;4965218;28;20609;-44
2023/04/18 04:53:00;;;;;;;26.08;13.90;;;;;;;10.29;53.26;102866.41;4963507;28;20112;-43
2023/04/18 04:55:25;;;;;;;26.13;14.35;;;;;;;10.35;53.39;102863.16;4965882;28;20042;-43
2023/04/18 04:57:50;;;;;;;23.25;13.73;;;;;;;10.31;53.23;102863.84;4966004;28;20413;-42
2023/04/18 05:00:19;;;;;;;24.40;13.80;;;;;;;10.37;53.42;102869.34;4962240;28;20038;-42
2023/04/18 05:02:46;;;;;;;23.20;13.80;;;;;;;10.21;54.30;102869.44;4965541;28;20031;-43
2023/04/18 05:05:11;;;;;;;22.58;14.15;;;;;;;10.13;53.79;102867.34;4964579;28;20480;-41
2023/04/18 05:07:36;;;;;;;24.02;14.20;;;;;;;10.10;53.92;102876.75;4970177;28;20039;-44
2023/04/18 05:10:03;;;;;;;25.65;13.90;;;;;;;9.66;55.20;102875.50;4966275;28;20038;-43
2023/04/18 05:12:28;;;;;;;25.85;14.00;;;;;;;9.81;55.59;102867.56;4966408;28;20058;-42
2023/04/18 05:14:54;;;;;;;22.35;13.85;;;;;;;9.95;54.25;102876.00;4965710;28;20059;-42
2023/04/18 05:17:19;;;;;;;24.42;14.18;;;;;;;10.19;54.66;102874.59;4963026;28;20074;-44
2023/04/18 05:19:44;;;;;;;23.55;14.05;;;;;;;10.08;54.66;102875.78;4965467;28;20105;-43
2023/04/18 05:22:10;;;;;;;22.15;14.30;;;;;;;9.84;55.17;102869.38;4962411;28;20045;-43
2023/04/18 05:24:35;;;;;;;26.30;14.30;;;;;;;9.99;55.17;102872.75;4966240;28;20530;-43
2023/04/18 05:27:01;;;;;;;25.63;14.73;;;;;;;9.92;55.33;102874.16;4962247;28;20497;-41
2023/04/18 05:29:26;;;;;;;23.85;13.88;;;;;;;10.15;55.48;102878.75;4965874;28;20046;-43
2023/04/18 05:31:51;;;;;;;24.75;15.32;;;;;;;9.73;56.38;102890.63;4964401;28;20034;-43
2023/04/18 05:34:16;;;;;;;28.17;16.33;;;;;;;10.18;55.32;102879.75;4963160;28;20660;-43
2023/04/18 05:36:42;;;;;;;25.42;14.23;;;;;;;10.22;55.24;102881.66;4970713;28;20031;-44
2023/04/18 05:39:07;;;;;;;24.58;14.20;;;;;;;9.64;56.96;102882.34;4964273;28;20042;-41
2023/04/18 05:41:32;;;;;;;23.77;14.10;;;;;;;10.23;55.84;102883.47;4968064;28;20026;-43
2023/04/18 05:43:58;;;;;;;24.38;13.75;;;;;;;10.30;55.42;102877.72;4962432;28;20114;-45
2023/04/18 05:46:23;;;;;;;24.42;14.25;;;;;;;10.66;55.18;102887.22;4964988;28;20644;-43
2023/04/18 05:48:49;;;;;;;25.70;14.40;;;;;;;10.56;55.28;102885.88;4963301;28;20409;-43
2023/04/18 05:51:14;;;;;;;26.23;14.35;;;;;;;10.70;54.99;102891.72;4961215;28;20045;-43
2023/04/18 05:53:39;;;;;;;25.75;14.13;;;;;;;10.58;55.28;102894.69;4964062;28;20038;-45
2023/04/18 05:56:05;;;;;;;23.75;14.73;;;;;;;10.14;56.23;102896.91;4962111;28;20035;-42
2023/04/18 05:58:31;;;;;;;23.88;13.65;;;;;;;10.26;56.68;102899.22;4965797;28;20055;-47
2023/04/18 06:00:56;;;;;;;25.13;14.27;;;;;;;10.38;56.43;102895.47;4965094;28;20031;-42
2023/04/18 06:03:21;;;;;;;25.02;14.15;;;;;;;10.47;55.85;102901.13;4960123;28;20113;-43
2023/04/18 06:05:47;;;;;;;24.73;13.68;;;;;;;10.47;56.07;102901.13;4963932;28;20121;-41
2023/04/18 06:08:12;;;;;;;29.35;14.23;;;;;;;10.64;56.09;102894.06;4961342;28;20026;-42
2023/04/18 06:10:37;;;;;;;22.35;14.13;;;;;;;10.68;56.08;102897.69;4964465;28;20077;-47
2023/04/18 06:13:03;;;;;;;26.30;14.13;;;;;;;10.45;56.20;102886.22;4960794;28;20043;-42
2023/04/18 06:15:28;;;;;;;23.55;14.07;;;;;;;10.36;56.92;102897.16;4964528;28;20144;-43
2023/04/18 06:17:53;;;;;;;25.63;14.35;;;;;;;10.45;56.71;102902.78;4964383;28;20038;-42
2023/04/18 06:20:19;;;;;;;22.38;13.73;;;;;;;10.58;56.82;102906.84;4961154;28;20098;-42
2023/04/18 06:22:44;;;;;;;25.02;14.02;;;;;;;10.22;57.81;102895.59;4967781;28;20047;-41
2023/04/18 06:25:10;;;;;;;23.40;14.07;;;;;;;10.55;56.91;102906.72;4964287;28;20031;-41
2023/04/18 06:27:36;;;;;;;20.40;13.23;;;;;;;9.93;58.81;102906.31;4956770;28;20039;-44
2023/04/18 06:30:03;;;;;;;22.08;13.77;;;;;;;10.23;58.26;102905.22;4942091;28;20053;-42
2023/04/18 06:32:29;;;;;;;21.73;13.50;;;;;;;10.38;57.71;102905.00;4944349;28;20046;-45
2023/04/18 06:34:54;;;;;;;24.20;13.23;;;;;;;10.23;57.88;102913.03;4944244;28;20035;-46
2023/04/18 06:37:20;;;;;;;20.92;13.77;;;;;;;10.47;57.61;102913.28;4940567;28;20045;-42
2023/04/18 06:39:45;;;;;;;21.27;13.80;;;;;;;10.69;57.29;102907.31;4943589;28;20090;-41
2023/04/18 06:42:10;;;;;;;21.85;13.73;;;;;;;10.72;57.37;102913.56;4941787;28;20457;-41
2023/04/18 06:44:35;;;;;;;22.90;13.27;;;;;;;10.71;57.50;102914.41;4947844;28;20031;-42
2023/04/18 06:47:01;;;;;;;23.10;13.60;;;;;;;10.76;57.46;102915.50;4949220;28;20038;-45
2023/04/18 06:49:26;;;;;;;23.85;13.77;;;;;;;10.86;57.52;102907.25;4967326;28;20038;-42
2023/04/18 06:51:52;;;;;;;22.35;13.23;;;;;;;11.01;56.88;102909.66;4966984;28;20520;-42
2023/04/18 06:54:17;;;;;;;22.42;13.30;;;;;;;11.13;56.63;102904.06;4964062;28;20042;-42
2023/04/18 06:56:42;;;;;;;24.42;13.35;;;;;;;11.01;56.81;102911.34;4966435;28;20069;-43
2023/04/18 06:59:08;;;;;;;22.10;12.80;;;;;;;11.10;56.59;102907.41;4963484;28;20362;-44
2023/04/18 07:01:38;;;;;;;21.05;13.02;;;;;;;11.29;55.42;102904.78;4967088;28;20030;-44
2023/04/18 07:04:03;;;;;;;23.02;13.55;;;;;;;11.59;55.98;102906.88;4963737;28;20038;-46
2023/04/18 07:06:29;;;;;;;22.30;12.98;;;;;;;11.68;55.94;102909.91;4971892;28;20041;-44
2023/04/18 07:08:58;;;;;;;21.33;12.80;;;;;;;11.34;56.45;102897.16;4970940;28;20037;-44
2023/04/18 07:13:52;;;;;;;20.63;13.25;;;;;;;11.60;55.46;102906.06;5006391;23;20038;-46
2023/04/18 07:16:18;;;;;;;21.23;13.02;;;;;;;11.29;55.89;102910.00;4983703;28;20042;-44
2023/04/18 07:18:43;;;;;;;23.10;13.23;;;;;;;11.68;55.88;102908.19;4989136;28;20060;-43
2023/04/18 07:21:08;;;;;;;21.77;13.00;;;;;;;11.55;56.92;102911.09;4984446;28;20559;-44
2023/04/18 07:23:34;;;;;;;20.70;12.77;;;;;;;11.63;56.39;102917.56;4987536;28;20102;-45
2023/04/18 07:26:01;;;;;;;19.70;12.70;;;;;;;11.74;57.13;102916.31;4985650;28;20030;-43
2023/04/18 07:28:27;;;;;;;20.75;12.52;;;;;;;11.46;57.64;102910.75;4988023;28;20030;-43
2023/04/18 07:30:53;;;;;;;21.40;12.80;;;;;;;11.36;58.99;102917.28;4988137;28;20034;-43
2023/04/18 07:33:18;;;;;;;21.83;12.93;;;;;;;11.44;59.32;102922.84;4984334;28;20058;-44
2023/04/18 07:35:45;;;;;;;19.50;12.55;;;;;;;11.33;59.22;102927.59;4987542;28;20042;-48
2023/04/18 07:38:11;;;;;;;19.92;12.45;;;;;;;11.48;59.89;102908.16;4984631;28;20030;-46
2023/04/18 07:40:37;;;;;;;20.42;12.52;;;;;;;11.37;59.79;102910.34;4970478;28;20040;-43
2023/04/18 07:43:02;;;;;;;20.92;12.95;;;;;;;11.63;59.61;102914.06;4982963;28;20026;-45
2023/04/18 07:45:27;;;;;;;22.40;13.05;;;;;;;11.77;59.00;102919.03;4968702;28;20118;-45
2023/04/18 07:47:53;;;;;;;19.58;12.15;;;;;;;11.78;59.06;102917.31;4985870;28;20030;-46
2023/04/18 07:50:18;;;;;;;18.77;12.07;;;;;;;12.04;57.78;102914.03;4982428;28;20060;-43
2023/04/18 07:52:46;;;;;;;20.15;12.77;;;;;;;12.31;57.24;102913.34;4985732;28;20046;-41
2023/04/18 07:55:12;;;;;;;18.77;11.88;;;;;;;12.48;56.10;102909.63;4966220;28;20026;-45
2023/04/18 07:57:37;;;;;;;20.25;11.85;;;;;;;12.77;54.92;102911.59;4985664;28;20434;-44
2023/04/18 08:00:03;;;;;;;20.50;11.60;;;;;;;12.29;54.51;102908.03;4982787;28;20050;-47
2023/04/18 08:02:28;;;;;;;19.30;11.90;;;;;;;12.59;53.70;102906.59;4986421;28;20034;-48
2023/04/18 08:04:54;;;;;;;18.75;11.63;;;;;;;12.26;56.03;102910.53;4987802;28;20065;-45
2023/04/18 08:07:20;;;;;;;18.45;11.52;;;;;;;12.75;54.57;102904.53;4984011;28;20034;-45
2023/04/18 08:09:45;;;;;;;19.65;11.40;;;;;;;12.81;53.79;102909.97;4987516;28;20093;-45
2023/04/18 08:12:10;;;;;;;17.70;11.40;;;;;;;13.05;53.23;102915.25;4983210;28;20042;-44
2023/04/18 08:14:36;;;;;;;17.60;11.32;;;;;;;12.71;52.90;102897.41;4986875;28;20150;-44
2023/04/18 08:17:01;;;;;;;17.67;11.05;;;;;;;12.39;54.18;102909.28;4983831;28;20054;-47
2023/04/18 08:19:26;;;;;;;19.45;11.10;;;;;;;12.92;53.90;102906.94;4988519;28;20041;-43
2023/04/18 08:21:52;;;;;;;22.63;11.50;;;;;;;12.81;53.98;102912.59;4987876;28;20382;-46
2023/04/18 08:24:17;;;;;;;17.50;10.82;;;;;;;12.66;54.24;102906.81;4983666;28;20046;-45
2023/04/18 08:26:42;;;;;;;17.73;10.80;;;;;;;12.72;53.55;102910.56;4985688;28;20382;-44
2023/04/18 08:29:07;;;;;;;20.98;10.77;;;;;;;12.69;53.50;102906.91;4980944;28;20038;-44
2023/04/18 08:31:33;;;;;;;16.45;10.48;;;;;;;13.15;52.54;102902.56;4967449;28;20121;-46
2023/04/18 08:33:58;;;;;;;15.82;10.50;;;;;;;13.51;51.87;102902.91;4982533;28;20066;-45
2023/04/18 08:36:23;;;;;;;16.15;9.77;;;;;;;13.17;51.66;102903.50;4985605;28;20035;-43
2023/04/18 08:38:49;;;;;;;16.92;10.85;;;;;;;13.05;52.31;102908.28;4985913;28;20093;-43
2023/04/18 08:41:19;;;;;;;17.33;10.35;;;;;;;12.90;52.04;102898.13;4963484;28;20037;-45
2023/04/18 08:43:47;;;;;;;15.45;10.40;;;;;;;13.19;52.27;102906.16;4984093;28;20031;-46
2023/04/18 08:46:13;;;;;;;15.90;9.80;;;;;;;13.31;51.25;102902.22;4981565;28;20034;-44
2023/04/18 08:48:38;;;;;;;15.02;9.98;;;;;;;13.47;50.97;102901.03;4984292;28;20042;-44
2023/04/18 08:51:04;;;;;;;17.48;10.15;;;;;;;13.64;50.42;102902.50;4982873;28;20117;-43
2023/04/18 08:53:32;;;;;;;14.80;10.00;;;;;;;14.05;50.22;102895.94;4986603;28;20516;-43
2023/04/18 08:55:59;;;;;;;16.65;9.52;;;;;;;13.66;50.39;102892.94;4981070;28;20097;-55
2023/04/18 08:58:26;;;;;;;15.63;9.80;;;;;;;13.90;50.03;102890.22;4983828;28;20031;-46
2023/04/18 09:00:53;;;;;;;17.75;9.57;;;;;;;13.86;50.05;102898.81;4984008;28;20042;-45
2023/04/18 09:03:36;;;;;;;14.57;9.45;;;;;;;13.92;49.22;102906.88;4980172;28;20112;-46
2023/04/18 09:06:15;;;;;;;15.20;9.85;;;;;;;13.90;49.61;102897.22;4979097;28;20031;-47
2023/04/18 09:08:42;;;;;;;13.82;9.48;;;;;;;14.05;49.88;102898.56;4983248;28;20044;-45
2023/04/18 09:11:28;;;;;;;14.60;9.35;;;;;;;14.33;48.99;102892.44;4980759;28;20088;-45
2023/04/18 09:13:56;;;;;;;13.75;9.30;;;;;;;14.46;49.19;102897.22;4983611;28;20150;-45
2023/04/18 09:16:22;;;;;;;18.15;9.55;;;;;;;14.96;48.37;102903.03;4980359;28;20556;-46
2023/04/18 09:19:09;;;;;;;16.45;10.43;;;;;;;14.43;48.31;102894.53;4983602;28;20479;-46
2023/04/18 09:21:37;;;;;;;16.90;10.20;;;;;;;14.70;49.22;102894.41;4982051;28;20034;-47
2023/04/18 09:24:22;;;;;;;14.95;10.10;;;;;;;14.80;48.64;102890.34;4978327;28;20061;-43
2023/04/18 09:26:52;;;;;;;15.75;10.00;;;;;;;14.93;48.31;102900.34;4983029;28;20041;-42
2023/04/18 09:29:21;;;;;;;16.33;10.27;;;;;;;15.20;47.71;102892.28;4978785;28;20038;-44
2023/04/18 09:32:00;;;;;;;15.10;10.25;;;;;;;15.59;46.99;102885.47;4983304;28;20030;-44
2023/04/18 09:34:26;;;;;;;16.65;10.95;;;;;;;15.48;47.19;102879.03;4980272;28;20401;-44
2023/04/18 09:37:04;;;;;;;16.95;10.43;;;;;;;15.41;46.82;102888.50;4983133;28;20042;-45
2023/04/18 09:39:29;;;;;;;15.10;10.18;;;;;;;15.36;45.97;102877.00;4981062;28;20035;-45
2023/04/18 09:41:59;;;;;;;15.48;10.25;;;;;;;14.98;46.50;102880.34;4983081;28;20041;-44
2023/04/18 09:44:25;;;;;;;16.48;10.18;;;;;;;14.99;47.59;102884.75;4980124;28;20041;-45
2023/04/18 09:46:50;;;;;;;16.42;10.10;;;;;;;15.04;46.54;102880.50;4984215;28;20039;-43
2023/04/18 09:49:16;;;;;;;13.75;9.43;;;;;;;15.34;46.84;102886.56;4963066;28;20031;-44
2023/04/18 09:51:43;;;;;;;15.95;9.98;;;;;;;15.56;46.72;102876.59;4983782;28;20061;-45
2023/04/18 09:54:16;;;;;;;14.13;9.63;;;;;;;15.93;45.45;102870.47;4979834;28;20082;-42
2023/04/18 09:56:45;;;;;;;13.77;9.13;;;;;;;15.95;45.05;102885.47;4983613;28;20039;-45
2023/04/18 09:59:15;;;;;;;15.25;9.55;;;;;;;15.37;46.66;102883.09;4980802;28;20034;-48
2023/04/18 10:01:46;;;;;;;13.07;8.98;;;;;;;15.30;45.50;102881.19;4984027;28;20038;-46
2023/04/18 10:04:14;;;;;;;13.90;8.90;;;;;;;15.64;45.20;102877.69;4963533;28;20038;-45
2023/04/18 10:06:41;;;;;;;14.30;9.10;;;;;;;15.44;45.51;102887.66;4984071;28;20037;-45
2023/04/18 10:09:09;;;;;;;13.88;9.48;;;;;;;15.28;45.72;102872.38;4980572;28;20034;-47
2023/04/18 10:11:34;;;;;;;14.10;9.23;;;;;;;15.30;46.60;102878.56;4982844;28;20121;-44
2023/04/18 10:14:03;;;;;;;14.45;9.40;;;;;;;15.68;44.88;102866.38;4979806;28;20599;-43
2023/04/18 10:16:28;;;;;;;14.70;9.23;;;;;;;15.78;45.84;102871.03;4985027;28;20493;-42
2023/04/18 10:18:55;;;;;;;14.52;9.25;;;;;;;15.46;46.19;102867.59;4987401;28;20038;-44
2023/04/18 10:21:21;;;;;;;14.82;9.73;;;;;;;15.75;46.18;102863.06;4983868;28;20388;-46
2023/04/18 10:23:47;;;;;;;13.55;9.63;;;;;;;15.86;45.72;102871.22;4986745;28;20034;-46
2023/04/18 10:26:13;;;;;;;15.27;9.68;;;;;;;16.08;45.29;102862.97;4983181;28;20096;-43
2023/04/18 10:28:57;;;;;;;13.93;8.98;;;;;;;15.89;45.16;102864.28;4987509;28;20448;-42
2023/04/18 10:31:25;;;;;;;13.95;9.60;;;;;;;15.76;45.73;102859.56;4985642;28;20037;-42
2023/04/18 10:33:53;;;;;;;14.38;9.57;;;;;;;15.57;45.40;102844.22;4988238;28;20050;-43
2023/04/18 10:36:19;;;;;;;13.13;9.48;;;;;;;15.83;45.86;102850.97;4985374;28;20965;-46
2023/04/18 10:38:53;;;;;;;18.95;9.40;;;;;;;15.64;45.79;102857.56;4989494;28;20034;-45
2023/04/18 10:41:25;;;;;;;14.07;8.65;;;;;;;15.71;45.95;102856.84;4983948;28;20049;-44
2023/04/18 10:46:38;;;;;;;15.95;10.05;;;;;;;15.77;46.03;102859.63;4984686;28;20045;-57
2023/04/18 10:49:23;;;;;;;14.65;9.68;;;;;;;15.92;46.35;102851.19;4982707;28;20034;-43
2023/04/18 10:51:59;;;;;;;15.90;10.38;;;;;;;15.99;46.54;102853.09;4986550;28;20117;-43
2023/04/18 10:54:40;;;;;;;18.60;10.73;;;;;;;15.56;47.26;102848.56;4983165;28;20504;-49
2023/04/18 10:57:10;;;;;;;13.32;9.18;;;;;;;15.48;46.85;102849.22;4982766;28;20066;-44
2023/04/18 10:59:43;;;;;;;14.82;9.70;;;;;;;15.38;47.04;102851.63;4986865;28;20107;-43
2023/04/18 11:02:24;;;;;;;18.05;10.05;;;;;;;14.72;48.04;102857.72;4982903;28;20034;-43
2023/04/18 11:05:09;;;;;;;12.98;9.10;;;;;;;15.02;47.53;102853.28;4985908;28;20034;-46
2023/04/18 11:07:34;;;;;;;;;;;;;;;15.13;47.60;102845.69;4987227;28;20058;-41
2023/04/18 11:10:00;;;;;;;15.02;9.70;;;;;;;15.51;47.16;102839.66;4986328;28;20315;-44
2023/04/18 11:12:34;;;;;;;14.73;9.95;;;;;;;15.15;47.63;102847.53;4987981;28;20093;-44
2023/04/18 11:15:00;;;;;;;13.38;9.52;;;;;;;15.43;47.55;102849.09;4983220;28;20044;-47